createdAt,value
2022-12-19T00:01:35.391Z,101721.78
2022-12-19T00:04:07.814Z,101720.31
2022-12-19T00:06:35.007Z,101722.28
2022-12-19T00:09:01.549Z,101721.63
2022-12-19T00:11:29.267Z,101722.41
2022-12-19T00:13:55.987Z,101712.00
2022-12-19T00:16:24.967Z,101703.50
2022-12-19T00:18:55.449Z,101699.81
2022-12-19T00:21:25.206Z,101699.00
2022-12-19T00:23:52.486Z,101690.50
2022-12-19T00:26:22.132Z,101698.53
2022-12-19T00:28:52.191Z,101681.03
2022-12-19T00:31:19.928Z,101688.41
2022-12-19T00:33:47.408Z,101681.34
2022-12-19T00:36:22.512Z,101698.38
2022-12-19T00:38:51.476Z,101696.63
2022-12-19T00:41:29.534Z,101690.53
2022-12-19T00:44:00.842Z,101684.88
2022-12-19T00:46:28.779Z,101673.63
2022-12-19T00:48:55.724Z,101677.19
2022-12-19T00:51:25.530Z,101670.59
2022-12-19T00:53:53.599Z,101665.94
2022-12-19T00:56:27.107Z,101673.00
2022-12-19T00:58:54.774Z,101676.06
2022-12-19T01:01:24.684Z,101675.09
2022-12-19T01:04:26.489Z,101661.75
2022-12-19T01:06:37.853Z,101668.81
2022-12-19T01:09:06.927Z,101664.50
2022-12-19T01:11:52.211Z,101669.00
2022-12-19T01:14:22.714Z,101665.00
2022-12-19T01:16:50.221Z,101665.31
2022-12-19T01:19:16.734Z,101660.94
2022-12-19T01:21:43.347Z,101646.97
2022-12-19T01:24:10.446Z,101640.22
2022-12-19T01:26:37.488Z,101638.00
2022-12-19T01:29:04.902Z,101636.22
2022-12-19T01:31:32.570Z,101645.22
2022-12-19T01:34:00.513Z,101651.34
2022-12-19T01:36:28.003Z,101650.69
2022-12-19T01:38:58.334Z,101643.44
2022-12-19T01:41:25.428Z,101634.28
2022-12-19T01:44:01.405Z,101629.47
2022-12-19T01:46:38.356Z,101626.09
2022-12-19T01:49:10.678Z,101623.66
2022-12-19T01:51:46.979Z,101617.53
2022-12-19T01:54:34.946Z,101615.25
2022-12-19T01:57:04.500Z,101604.47
2022-12-19T01:59:52.716Z,101593.53
2022-12-19T02:02:33.287Z,101583.56
2022-12-19T02:05:01.590Z,101559.59
2022-12-19T02:07:28.448Z,101561.97
2022-12-19T02:09:57.648Z,101570.00
2022-12-19T02:12:26.384Z,101557.13
2022-12-19T02:14:58.013Z,101545.22
2022-12-19T02:17:38.824Z,101553.22
2022-12-19T02:20:40.417Z,101534.69
2022-12-19T02:23:50.011Z,101526.47
2022-12-19T02:26:34.759Z,101501.53
2022-12-19T02:29:19.642Z,101491.88
2022-12-19T02:32:06.271Z,101498.72
2022-12-19T02:34:49.712Z,101494.03
2022-12-19T02:37:41.351Z,101497.69
2022-12-19T02:40:19.523Z,101503.66
2022-12-19T02:42:50.447Z,101509.91
2022-12-19T02:45:22.708Z,101514.06
2022-12-19T02:47:57.542Z,101507.91
2022-12-19T02:50:25.921Z,101507.75
2022-12-19T02:52:52.357Z,101501.94
2022-12-19T02:55:23.522Z,101499.81
2022-12-19T02:58:13.364Z,101495.03
2022-12-19T03:00:54.374Z,101498.03
2022-12-19T03:03:29.173Z,101486.22
2022-12-19T03:06:01.289Z,101479.13
2022-12-19T03:08:33.830Z,101474.81
2022-12-19T03:11:07.715Z,101480.75
2022-12-19T03:13:39.121Z,101485.22
2022-12-19T03:16:09.205Z,101478.72
2022-12-19T03:18:36.220Z,101473.25
2022-12-19T03:21:19.484Z,101477.13
2022-12-19T03:23:47.180Z,101475.78
2022-12-19T03:26:19.778Z,101480.59
2022-12-19T03:28:52.683Z,101473.16
2022-12-19T03:31:23.094Z,101462.22
2022-12-19T03:33:55.732Z,101456.88
2022-12-19T03:36:28.857Z,101463.03
2022-12-19T03:38:57.105Z,101453.66
2022-12-19T03:41:44.903Z,101452.06
2022-12-19T03:44:14.124Z,101456.88
2022-12-19T03:46:46.033Z,101453.47
2022-12-19T03:49:13.397Z,101461.44
2022-12-19T03:52:31.286Z,101447.22
2022-12-19T03:55:36.029Z,101449.88
2022-12-19T03:58:10.487Z,101438.56
2022-12-19T04:00:42.992Z,101442.91
2022-12-19T04:03:11.105Z,101439.34
2022-12-19T04:05:38.660Z,101432.28
2022-12-19T04:08:08.163Z,101433.19
2022-12-19T04:10:44.489Z,101434.56
2022-12-19T04:13:16.241Z,101430.69
2022-12-19T04:15:54.113Z,101427.06
2022-12-19T04:18:21.421Z,101425.78
2022-12-19T04:20:58.263Z,101423.63
2022-12-19T04:23:40.048Z,101421.34
2022-12-19T04:26:08.573Z,101422.50
2022-12-19T04:28:42.349Z,101410.84
2022-12-19T04:31:13.470Z,101414.16
2022-12-19T04:33:39.949Z,101428.44
2022-12-19T04:36:06.774Z,101417.00
2022-12-19T04:38:33.443Z,101407.41
2022-12-19T04:41:00.390Z,101409.47
2022-12-19T04:43:26.946Z,101405.59
2022-12-19T04:45:57.360Z,101397.09
2022-12-19T04:48:25.053Z,101403.53
2022-12-19T04:50:51.687Z,101407.41
2022-12-19T04:53:18.289Z,101408.06
2022-12-19T04:55:44.744Z,101404.56
2022-12-19T04:58:11.427Z,101409.91
2022-12-19T05:00:38.505Z,101398.94
2022-12-19T05:03:05.094Z,101394.13
2022-12-19T05:05:31.575Z,101404.00
2022-12-19T05:07:58.046Z,101390.28
2022-12-19T05:10:24.567Z,101384.78
2022-12-19T05:12:51.043Z,101390.16
2022-12-19T05:15:17.499Z,101389.00
2022-12-19T05:17:43.990Z,101373.34
2022-12-19T05:20:10.955Z,101379.53
2022-12-19T05:22:37.407Z,101381.56
2022-12-19T05:25:04.192Z,101376.56
2022-12-19T05:27:30.675Z,101383.38
2022-12-19T05:29:57.183Z,101381.78
2022-12-19T05:32:23.656Z,101376.88
2022-12-19T05:34:50.076Z,101372.19
2022-12-19T05:37:16.524Z,101371.03
2022-12-19T05:39:42.989Z,101373.56
2022-12-19T05:42:12.297Z,101377.63
2022-12-19T05:44:39.413Z,101377.97
2022-12-19T05:47:06.001Z,101385.94
2022-12-19T05:49:32.429Z,101376.13
2022-12-19T05:51:58.882Z,101375.09
2022-12-19T05:54:26.013Z,101386.53
2022-12-19T05:56:52.444Z,101389.16
2022-12-19T05:59:18.854Z,101379.53
2022-12-19T06:01:45.444Z,101375.19
2022-12-19T06:04:11.946Z,101389.03
2022-12-19T06:06:38.347Z,101375.03
2022-12-19T06:09:04.868Z,101376.66
2022-12-19T06:11:31.301Z,101380.28
2022-12-19T06:13:57.730Z,101385.19
2022-12-19T06:16:24.421Z,101386.91
2022-12-19T06:18:51.111Z,101385.31
2022-12-19T06:21:22.319Z,101394.69
2022-12-19T06:23:49.103Z,101393.31
2022-12-19T06:26:19.766Z,101382.78
2022-12-19T06:28:48.331Z,101385.53
2022-12-19T06:31:15.406Z,101381.28
2022-12-19T06:33:41.926Z,101389.50
2022-12-19T06:36:21.785Z,101378.72
2022-12-19T06:38:49.332Z,101395.91
2022-12-19T06:41:35.599Z,101378.38
2022-12-19T06:44:04.891Z,101373.34
2022-12-19T06:46:31.973Z,101371.38
2022-12-19T06:48:58.520Z,101367.16
2022-12-19T06:51:25.211Z,101366.34
2022-12-19T06:53:52.246Z,101360.97
2022-12-19T06:56:18.977Z,101367.34
2022-12-19T06:58:46.165Z,101370.09
2022-12-19T07:01:30.222Z,101361.56
2022-12-19T07:03:57.080Z,101361.34
2022-12-19T07:06:23.873Z,101367.38
2022-12-19T07:08:50.432Z,101366.31
2022-12-19T07:11:16.876Z,101360.91
2022-12-19T07:13:43.332Z,101368.53
2022-12-19T07:16:10.251Z,101377.41
2022-12-19T07:18:39.202Z,101371.19
2022-12-19T07:21:08.596Z,101384.59
2022-12-19T07:23:35.422Z,101383.06
2022-12-19T07:26:01.974Z,101384.69
2022-12-19T07:28:28.432Z,101375.63
2022-12-19T07:30:55.068Z,101387.16
2022-12-19T07:33:22.199Z,101398.88
2022-12-19T07:35:48.794Z,101394.72
2022-12-19T07:38:15.291Z,101395.06
2022-12-19T07:40:41.822Z,101403.66
2022-12-19T07:43:08.378Z,101402.25
2022-12-19T07:45:37.983Z,101388.94
2022-12-19T07:48:06.332Z,101395.00
2022-12-19T07:50:34.075Z,101391.78
2022-12-19T07:53:00.707Z,101375.00
2022-12-19T07:55:27.779Z,101376.84
2022-12-19T07:57:55.513Z,101391.72
2022-12-19T08:00:22.587Z,101388.56
2022-12-19T08:02:49.410Z,101396.56
2022-12-19T08:05:16.170Z,101397.03
2022-12-19T08:07:42.631Z,101393.97
2022-12-19T08:10:11.437Z,101398.31
2022-12-19T08:12:38.207Z,101394.16
2022-12-19T08:15:05.843Z,101408.78
2022-12-19T08:17:34.648Z,101407.38
2022-12-19T08:20:01.246Z,101410.13
2022-12-19T08:22:29.701Z,101400.44
2022-12-19T08:24:57.455Z,101403.19
2022-12-19T08:27:24.149Z,101394.13
2022-12-19T08:29:50.700Z,101395.66
2022-12-19T08:32:20.959Z,101388.91
2022-12-19T08:34:49.232Z,101390.13
2022-12-19T08:37:15.803Z,101397.22
2022-12-19T08:39:42.269Z,101408.25
2022-12-19T08:42:08.755Z,101411.72
2022-12-19T08:44:35.164Z,101410.13
2022-12-19T08:47:02.659Z,101413.03
2022-12-19T08:49:29.291Z,101410.28
2022-12-19T08:51:55.848Z,101413.75
2022-12-19T08:54:22.303Z,101410.56
2022-12-19T08:56:48.816Z,101416.94
2022-12-19T08:59:30.349Z,101414.56
2022-12-19T09:01:59.834Z,101424.91
2022-12-19T09:05:58.292Z,101416.41
2022-12-19T09:07:15.586Z,101410.44
2022-12-19T09:09:42.969Z,101407.44
2022-12-19T09:12:09.427Z,101407.78
2022-12-19T09:14:36.346Z,101394.44
2022-12-19T09:17:03.813Z,101398.34
2022-12-19T09:19:32.100Z,101393.00
2022-12-19T09:21:58.989Z,101391.47
2022-12-19T09:24:25.551Z,101399.31
2022-12-19T09:26:52.131Z,101403.38
2022-12-19T09:29:20.424Z,101408.25
2022-12-19T09:31:55.898Z,101410.19
2022-12-19T09:34:24.332Z,101427.22
2022-12-19T09:36:59.558Z,101406.97
2022-12-19T09:39:26.028Z,101412.84
2022-12-19T09:42:07.469Z,101416.00
2022-12-19T09:44:49.072Z,101410.50
2022-12-19T09:47:36.763Z,101408.19
2022-12-19T09:50:15.140Z,101418.28
2022-12-19T09:52:56.128Z,101411.19
2022-12-19T09:55:28.309Z,101389.28
2022-12-19T09:57:57.732Z,101392.56
2022-12-19T10:00:34.662Z,101393.41
2022-12-19T10:03:16.166Z,101400.44
2022-12-19T10:06:29.484Z,101404.13
2022-12-19T10:09:45.351Z,101396.66
2022-12-19T10:12:40.457Z,101398.03
2022-12-19T10:14:55.894Z,101408.78
2022-12-19T10:17:31.363Z,101400.91
2022-12-19T10:20:13.200Z,101402.22
2022-12-19T10:22:54.922Z,101409.81
2022-12-19T10:25:39.683Z,101410.25
2022-12-19T10:28:11.906Z,101406.81
2022-12-19T10:31:21.858Z,101408.75
2022-12-19T10:34:06.948Z,101406.81
2022-12-19T10:39:33.719Z,101394.69
2022-12-19T10:42:15.378Z,101399.34
2022-12-19T10:44:43.913Z,101385.38
2022-12-19T10:47:16.112Z,101395.25
2022-12-19T10:49:43.037Z,101384.22
2022-12-19T10:52:12.101Z,101385.81
2022-12-19T10:54:40.012Z,101389.19
2022-12-19T10:57:21.620Z,101386.06
2022-12-19T11:00:15.165Z,101386.16
2022-12-19T11:02:47.040Z,101385.56
2022-12-19T11:05:51.221Z,101379.22
2022-12-19T11:08:33.536Z,101395.13
2022-12-19T11:14:23.309Z,101381.38
2022-12-19T11:18:44.257Z,101382.16
2022-12-19T11:23:31.390Z,101379.44
2022-12-19T11:29:17.731Z,101373.56
2022-12-19T11:29:45.690Z,101378.69
2022-12-19T11:30:35.212Z,101370.06
2022-12-19T11:30:38.373Z,101379.63
2022-12-19T11:34:23.683Z,101359.13
2022-12-19T11:36:53.010Z,101371.81
2022-12-19T11:39:41.739Z,101365.91
2022-12-19T11:42:14.264Z,101368.69
2022-12-19T11:44:49.132Z,101368.06
2022-12-19T11:47:54.302Z,101386.22
2022-12-19T11:50:28.512Z,101384.69
2022-12-19T11:53:18.819Z,101368.91
2022-12-19T11:55:51.429Z,101351.13
2022-12-19T11:58:18.043Z,101369.28
2022-12-19T12:00:58.452Z,101361.41
2022-12-19T12:04:01.046Z,101369.75
2022-12-19T12:06:34.337Z,101351.59
2022-12-19T12:14:08.009Z,101365.03
2022-12-19T12:19:35.526Z,101359.56
2022-12-19T12:27:29.995Z,101351.31
2022-12-19T12:30:57.175Z,101359.22
2022-12-19T12:31:12.278Z,101351.84
2022-12-19T12:31:19.343Z,101355.28
2022-12-19T12:31:39.618Z,101341.94
2022-12-19T12:35:40.501Z,101337.81
2022-12-19T12:40:45.663Z,101338.66
2022-12-19T12:43:36.344Z,101330.06
2022-12-19T12:46:14.545Z,101321.75
2022-12-19T12:48:50.544Z,101317.84
2022-12-19T12:51:18.528Z,101304.75
2022-12-19T12:53:47.575Z,101318.22
2022-12-19T12:56:17.725Z,101312.41
2022-12-19T12:58:47.835Z,101297.13
2022-12-19T13:01:15.169Z,101311.34
2022-12-19T13:03:43.162Z,101301.25
2022-12-19T13:06:25.878Z,101308.91
2022-12-19T13:09:01.956Z,101300.38
2022-12-19T13:11:47.030Z,101308.28
2022-12-19T13:14:32.393Z,101311.69
2022-12-19T13:16:58.931Z,101303.03
2022-12-19T13:19:37.435Z,101306.16
2022-12-19T13:22:03.887Z,101304.97
2022-12-19T13:24:50.079Z,101308.53
2022-12-19T13:27:19.324Z,101296.69
2022-12-19T13:30:00.980Z,101291.09
2022-12-19T13:32:33.515Z,101289.19
2022-12-19T13:35:55.056Z,101293.91
2022-12-19T13:39:57.819Z,101290.38
2022-12-19T13:40:57.446Z,101292.38
2022-12-19T13:43:48.865Z,101290.44
2022-12-19T13:46:24.378Z,101284.16
2022-12-19T13:48:56.714Z,101283.06
2022-12-19T13:51:23.228Z,101281.53
2022-12-19T13:53:59.240Z,101283.66
2022-12-19T13:56:30.649Z,101277.81
2022-12-19T13:59:04.280Z,101269.81
2022-12-19T14:01:33.922Z,101289.91
2022-12-19T14:04:13.413Z,101279.94
2022-12-19T14:06:47.231Z,101279.16
2022-12-19T14:11:27.866Z,101273.13
2022-12-19T14:13:57.406Z,101274.66
2022-12-19T14:15:44.238Z,101258.44
2022-12-19T14:18:45.253Z,101244.88
2022-12-19T14:22:08.754Z,101258.72
2022-12-19T14:24:16.080Z,101246.41
2022-12-19T14:28:22.351Z,101245.19
2022-12-19T14:30:30.382Z,101232.94
2022-12-19T14:33:44.778Z,101234.53
2022-12-19T14:36:09.090Z,101237.28
2022-12-19T14:39:25.838Z,101238.84
2022-12-19T14:42:01.871Z,101240.41
2022-12-19T14:52:25.201Z,101242.28
2022-12-19T14:52:35.958Z,101239.91
2022-12-19T14:54:04.907Z,101244.25
2022-12-19T14:54:50.452Z,101248.56
2022-12-19T14:56:58.429Z,101248.19
2022-12-19T14:59:05.496Z,101232.03
2022-12-19T15:01:34.422Z,101232.41
2022-12-19T15:04:50.456Z,101243.06
2022-12-19T15:07:08.033Z,101236.31
2022-12-19T15:11:04.090Z,101233.94
2022-12-19T15:14:49.481Z,101239.84
2022-12-19T15:16:01.771Z,101226.78
2022-12-19T15:18:28.360Z,101216.94
2022-12-19T15:20:57.461Z,101205.84
2022-12-19T15:23:24.687Z,101201.13
2022-12-19T15:26:08.687Z,101192.06
2022-12-19T15:28:41.263Z,101188.09
2022-12-19T15:31:17.889Z,101169.53
2022-12-19T15:34:14.196Z,101175.44
2022-12-19T15:36:30.999Z,101175.50
2022-12-19T15:38:58.267Z,101177.50
2022-12-19T15:41:25.270Z,101180.28
2022-12-19T15:44:08.031Z,101180.25
2022-12-19T15:46:34.879Z,101180.66
2022-12-19T15:49:02.093Z,101179.44
2022-12-19T15:51:28.558Z,101178.66
2022-12-19T15:54:08.944Z,101179.47
2022-12-19T15:56:51.977Z,101185.31
2022-12-19T15:59:37.469Z,101175.44
2022-12-19T16:02:13.281Z,101177.44
2022-12-19T16:04:39.961Z,101177.50
2022-12-19T16:07:15.125Z,101177.06
2022-12-19T16:09:42.696Z,101166.84
2022-12-19T16:12:14.202Z,101171.16
2022-12-19T16:14:40.977Z,101185.00
2022-12-19T16:17:14.927Z,101180.25
2022-12-19T16:19:41.497Z,101186.59
2022-12-19T16:22:24.306Z,101185.13
2022-12-19T16:24:52.175Z,101181.06
2022-12-19T16:27:25.727Z,101181.91
2022-12-19T16:29:54.038Z,101194.19
2022-12-19T16:32:24.038Z,101211.97
2022-12-19T16:34:51.751Z,101193.81
2022-12-19T16:37:18.271Z,101196.94
2022-12-19T16:39:44.829Z,101201.72
2022-12-19T16:42:18.828Z,101218.16
2022-12-19T16:44:48.019Z,101216.25
2022-12-19T16:47:17.176Z,101230.84
2022-12-19T16:49:44.719Z,101232.94
2022-12-19T16:52:11.683Z,101224.66
2022-12-19T16:54:38.170Z,101222.31
2022-12-19T16:57:07.135Z,101223.50
2022-12-19T16:59:37.528Z,101208.13
2022-12-19T17:02:32.179Z,101212.03
2022-12-19T17:04:58.786Z,101209.72
2022-12-19T17:07:32.305Z,101221.19
2022-12-19T17:09:58.891Z,101208.97
2022-12-19T17:12:27.550Z,101224.00
2022-12-19T17:14:54.350Z,101234.25
2022-12-19T17:17:20.945Z,101246.84
2022-12-19T17:19:47.432Z,101243.75
2022-12-19T17:22:16.620Z,101235.41
2022-12-19T17:24:45.720Z,101233.50
2022-12-19T17:27:13.072Z,101249.28
2022-12-19T17:29:39.673Z,101246.53
2022-12-19T17:32:09.087Z,101248.53
2022-12-19T17:34:35.989Z,101253.28
2022-12-19T17:37:05.166Z,101256.81
2022-12-19T17:42:44.714Z,101261.22
2022-12-19T17:45:11.345Z,101260.84
2022-12-19T17:47:37.893Z,101260.84
2022-12-19T17:50:06.123Z,101265.56
2022-12-19T17:52:35.810Z,101254.91
2022-12-19T17:55:26.459Z,101265.56
2022-12-19T17:57:53.411Z,101272.31
2022-12-19T18:00:28.423Z,101253.34
2022-12-19T18:02:57.196Z,101247.81
2022-12-19T18:05:28.271Z,101260.00
2022-12-19T18:07:55.367Z,101262.84
2022-12-19T18:10:25.827Z,101257.25
2022-12-19T18:12:53.296Z,101257.25
2022-12-19T18:15:21.395Z,101260.44
2022-12-19T18:17:50.365Z,101251.59
2022-12-19T18:20:32.687Z,101275.03
2022-12-19T18:23:00.742Z,101266.78
2022-12-19T18:25:31.067Z,101258.88
2022-12-19T18:27:58.591Z,101262.00
2022-12-19T18:30:25.769Z,101259.25
2022-12-19T18:33:01.273Z,101252.41
2022-12-19T18:35:43.783Z,101249.72
2022-12-19T18:38:16.357Z,101249.81
2022-12-19T18:40:43.475Z,101248.56
2022-12-19T18:43:13.952Z,101252.09
2022-12-19T18:45:43.413Z,101242.28
2022-12-19T18:48:30.668Z,101242.22
2022-12-19T18:50:58.419Z,101235.56
2022-12-19T18:53:35.331Z,101238.28
2022-12-19T18:56:05.525Z,101243.81
2022-12-19T18:58:33.073Z,101248.56
2022-12-19T19:01:01.479Z,101263.16
2022-12-19T19:03:31.534Z,101254.53
2022-12-19T19:05:58.215Z,101256.47
2022-12-19T19:08:28.362Z,101252.97
2022-12-19T19:10:55.956Z,101258.88
2022-12-19T19:13:24.590Z,101249.81
2022-12-19T19:15:53.983Z,101251.78
2022-12-19T19:18:25.825Z,101267.59
2022-12-19T19:21:00.486Z,101258.13
2022-12-19T19:23:29.579Z,101273.97
2022-12-19T19:25:56.020Z,101269.28
2022-12-19T19:28:22.476Z,101265.72
2022-12-19T19:30:50.567Z,101261.38
2022-12-19T19:33:23.873Z,101261.41
2022-12-19T19:35:56.261Z,101255.84
2022-12-19T19:38:23.584Z,101260.97
2022-12-19T19:40:50.565Z,101274.00
2022-12-19T19:43:17.075Z,101275.63
2022-12-19T19:45:43.855Z,101269.28
2022-12-19T19:48:10.883Z,101270.09
2022-12-19T19:50:37.560Z,101271.69
2022-12-19T19:53:04.256Z,101263.78
2022-12-19T19:55:31.376Z,101269.34
2022-12-19T19:57:57.833Z,101263.03
2022-12-19T20:00:24.820Z,101254.28
2022-12-19T20:02:51.556Z,101255.16
2022-12-19T20:05:18.616Z,101253.59
2022-12-19T20:07:45.135Z,101271.81
2022-12-19T20:10:12.240Z,101258.34
2022-12-19T20:12:38.859Z,101265.13
2022-12-19T20:15:06.255Z,101273.81
2022-12-19T20:17:32.697Z,101273.47
2022-12-19T20:19:59.256Z,101280.59
2022-12-19T20:22:25.888Z,101278.22
2022-12-19T20:24:52.334Z,101265.16
2022-12-19T20:27:18.777Z,101264.03
2022-12-19T20:29:45.330Z,101266.81
2022-12-19T20:32:12.841Z,101258.09
2022-12-19T20:34:39.283Z,101248.97
2022-12-19T20:37:05.860Z,101253.72
2022-12-19T20:39:33.739Z,101250.59
2022-12-19T20:42:00.247Z,101257.69
2022-12-19T20:44:26.745Z,101274.72
2022-12-19T20:46:53.362Z,101266.44
2022-12-19T20:49:19.854Z,101267.97
2022-12-19T20:51:47.836Z,101265.25
2022-12-19T20:54:15.685Z,101262.91
2022-12-19T20:56:42.963Z,101264.09
2022-12-19T20:59:10.234Z,101265.66
2022-12-19T21:01:37.764Z,101266.88
2022-12-19T21:04:05.347Z,101264.88
2022-12-19T21:06:32.391Z,101267.28
2022-12-19T21:08:58.991Z,101262.53
2022-12-19T21:11:26.448Z,101274.06
2022-12-19T21:13:53.387Z,101275.28
2022-12-19T21:16:21.740Z,101258.22
2022-12-19T21:18:49.935Z,101264.97
2022-12-19T21:21:22.700Z,101261.03
2022-12-19T21:23:50.141Z,101254.31
2022-12-19T21:26:16.996Z,101244.44
2022-12-19T21:28:44.628Z,101254.31
2022-12-19T21:31:25.067Z,101247.63
2022-12-19T21:33:55.855Z,101251.59
2022-12-19T21:36:24.173Z,101248.41
2022-12-19T21:38:53.517Z,101251.59
2022-12-19T21:41:20.986Z,101251.59
2022-12-19T21:43:51.581Z,101256.38
2022-12-19T21:46:19.349Z,101262.69
2022-12-19T21:48:49.644Z,101245.69
2022-12-19T21:51:18.623Z,101239.75
2022-12-19T21:53:45.914Z,101236.63
2022-12-19T21:56:15.111Z,101248.88
2022-12-19T21:58:41.628Z,101238.22
2022-12-19T22:01:11.349Z,101239.34
2022-12-19T22:03:39.024Z,101238.94
2022-12-19T22:06:08.672Z,101246.47
2022-12-19T22:08:36.422Z,101228.25
2022-12-19T22:11:03.782Z,101240.53
2022-12-19T22:13:30.716Z,101231.44
2022-12-19T22:16:02.560Z,101219.53
2022-12-19T22:18:29.261Z,101231.44
2022-12-19T22:20:59.770Z,101233.78
2022-12-19T22:23:26.706Z,101233.34
2022-12-19T22:26:10.891Z,101239.69
2022-12-19T22:28:39.638Z,101237.34
2022-12-19T22:31:26.278Z,101236.94
2022-12-19T22:33:55.969Z,101240.50
2022-12-19T22:36:28.006Z,101234.97
2022-12-19T22:38:58.723Z,101236.59
2022-12-19T22:41:26.263Z,101237.44
2022-12-19T22:43:54.199Z,101232.66
2022-12-19T22:46:26.446Z,101239.00
2022-12-19T22:48:56.232Z,101250.09
2022-12-19T22:51:23.003Z,101248.94
2022-12-19T22:53:49.761Z,101238.22
2022-12-19T22:56:18.771Z,101249.72
2022-12-19T22:58:48.306Z,101233.47
2022-12-19T23:01:20.921Z,101239.41
2022-12-19T23:03:50.238Z,101242.16
2022-12-19T23:06:18.368Z,101243.38
2022-12-19T23:08:45.572Z,101235.03
2022-12-19T23:11:17.146Z,101254.84
2022-12-19T23:13:44.616Z,101246.16
2022-12-19T23:16:11.293Z,101256.44
2022-12-19T23:18:38.540Z,101243.78
2022-12-19T23:21:09.243Z,101241.38
2022-12-19T23:23:42.396Z,101233.06
2022-12-19T23:26:16.000Z,101235.84
2022-12-19T23:29:03.477Z,101227.13
2022-12-19T23:31:30.822Z,101211.66
2022-12-19T23:33:58.438Z,101188.28
2022-12-19T23:37:09.021Z,101199.34
2022-12-19T23:39:12.811Z,101181.16
2022-12-19T23:41:39.681Z,101185.16
2022-12-19T23:44:06.311Z,101190.25
2022-12-19T23:46:32.797Z,101179.94
2022-12-19T23:48:59.497Z,101169.34
2022-12-19T23:51:27.539Z,101173.31
2022-12-19T23:53:55.697Z,101172.50
2022-12-19T23:56:24.959Z,101187.53
2022-12-19T23:58:52.046Z,101180.03
